| time (UTC) | temp F | wind direction | speed knots | gust knots | rain 1hr in | rain 24hr in | rain mn in | humidity % | barometer mb |
| 20260506113011 | 45 | 133 | 0.0 | 0.0 | 0.00 | 0.00 | 0.00 | 94 | 1017.0 |
| 20260506111510 | 45 | 133 | 0.0 | 0.0 | 0.00 | 0.00 | 0.00 | 94 | 1016.9 |
| 20260506110008 | 46 | 133 | 0.0 | 0.0 | 0.00 | 0.00 | 0.00 | 94 | 1016.7 |
| 20260506104505 | 46 | 133 | 0.0 | 0.0 | 0.00 | 0.00 | 0.00 | 93 | 1016.5 |
| 20260506103003 | 46 | 133 | 0.0 | 0.0 | 0.00 | 0.00 | 0.00 | 93 | 1016.4 |
| 20260506101501 | 46 | 133 | 0.0 | 0.0 | 0.00 | 0.00 | 0.00 | 93 | 1016.3 |
| 20260506100120 | 47 | 133 | 0.0 | 0.0 | 0.00 | 0.00 | 0.00 | 93 | 1016.3 |
| 20260506094558 | 47 | 133 | 0.0 | 0.0 | 0.00 | 0.00 | 0.00 | 93 | 1016.1 |
| 20260506093054 | 47 | 133 | 0.0 | 0.0 | 0.00 | 0.00 | 0.00 | 93 | 1016.0 |
| 20260506091552 | 47 | 133 | 0.0 | 0.0 | 0.00 | 0.00 | 0.00 | 93 | 1015.7 |
| 20260506090049 | 48 | 133 | 0.0 | 0.0 | 0.00 | 0.00 | 0.00 | 93 | 1015.6 |
| 20260506084611 | 48 | 133 | 0.0 | 0.0 | 0.00 | 0.00 | 0.00 | 93 | 1015.5 |
| 20260506083046 | 48 | 133 | 0.0 | 0.0 | 0.00 | 0.00 | 0.00 | 92 | 1015.4 |
| 20260506081550 | 48 | 133 | 0.0 | 0.0 | 0.00 | 0.00 | 0.00 | 92 | 1015.3 |
| 20260506073044 | 49 | 133 | 0.0 | 0.0 | 0.00 | 0.00 | 0.00 | 92 | 1014.9 |
| 20260506071536 | 49 | 133 | 0.0 | 0.0 | 0.00 | 0.00 | 0.00 | 91 | 1014.8 |
| 20260506061528 | 51 | 133 | 0.0 | 0.0 | 0.00 | 0.00 | 0.00 | 90 | 1014.5 |
| 20260506044551 | 55 | 133 | 0.0 | 0.0 | 0.00 | 0.00 | 0.00 | 88 | 1014.1 |
| 20260506043025 | 56 | 133 | 0.0 | 0.0 | 0.00 | 0.00 | 0.00 | 87 | 1014.1 |
| 20260506041524 | 57 | 133 | 0.0 | 0.0 | 0.00 | 0.00 | 0.00 | 86 | 1014.0 |
| 20260506040025 | 58 | 133 | 0.0 | 0.0 | 0.00 | 0.00 | 0.00 | 84 | 1013.6 |
| 20260506034544 | 59 | 133 | 0.0 | 0.0 | 0.00 | 0.00 | 0.00 | 82 | 1013.5 |
| 20260506033022 | 60 | 133 | 0.0 | 0.0 | 0.00 | 0.00 | 0.00 | 81 | 1013.3 |
| 20260506031522 | 62 | 133 | 0.0 | 0.0 | 0.00 | 0.00 | 0.00 | 79 | 1013.1 |
| 20260506030021 | 63 | 133 | 0.0 | 0.0 | 0.00 | 0.00 | 0.00 | 77 | 1013.0 |
| 20260506024521 | 64 | 133 | 0.0 | 0.0 | 0.00 | 0.00 | 0.00 | 75 | 1013.0 |
| 20260506023020 | 66 | 112 | 0.0 | 0.0 | 0.00 | 0.00 | 0.00 | 73 | 1012.9 |
| 20260506021520 | 66 | 124 | 0.0 | 3.5 | 0.00 | 0.00 | 0.00 | 71 | 1013.0 |
| 20260506020019 | 67 | 116 | 0.0 | 3.5 | 0.00 | 0.00 | 0.00 | 70 | 1013.0 |
| 20260506014526 | 68 | 122 | 0.0 | 4.3 | 0.00 | 0.00 | 0.00 | 69 | 1013.0 |
| 20260506013017 | 69 | 132 | 0.0 | 4.3 | 0.00 | 0.00 | 0.00 | 67 | 1013.0 |
| 20260506011518 | 70 | 115 | 0.0 | 0.0 | 0.00 | 0.00 | 0.00 | 67 | 1013.1 |
| 20260506010015 | 70 | 114 | 0.9 | 3.5 | 0.00 | 0.00 | 0.00 | 65 | 1013.1 |
| 20260506004530 | 71 | 139 | 0.0 | 4.3 | 0.00 | 0.00 | 0.00 | 65 | 1013.0 |
| 20260506003022 | 71 | 139 | 0.0 | 5.2 | 0.00 | 0.00 | 0.00 | 64 | 1013.1 |
| 20260506001515 | 71 | 135 | 1.7 | 5.2 | 0.00 | 0.00 | 0.00 | 62 | 1013.2 |
| 20260506000012 | 72 | 131 | 0.0 | 6.1 | 0.00 | 0.00 | 0.00 | 63 | 1013.3 |
| 20260505234519 | 72 | 127 | 0.9 | 4.3 | 0.00 | 0.00 | 0.00 | 61 | 1013.4 |
| 20260505233012 | 72 | 162 | 0.0 | 5.2 | 0.00 | 0.00 | 0.00 | 64 | 1013.5 |
| 20260505231515 | 71 | 172 | 0.0 | 7.0 | 0.00 | 0.00 | 0.00 | 63 | 1013.5 |
| 20260505230012 | 71 | 114 | 1.7 | 7.0 | 0.00 | 0.00 | 0.00 | 63 | 1013.7 |
| 20260505224510 | 72 | 134 | 0.0 | 7.0 | 0.00 | 0.00 | 0.00 | 63 | 1013.7 |
| 20260505223008 | 73 | 75 | 0.9 | 6.1 | 0.00 | 0.00 | 0.00 | 62 | 1013.9 |
| 20260505221507 | 73 | 127 | 0.0 | 5.2 | 0.00 | 0.00 | 0.00 | 63 | 1014.1 |
| 20260505220018 | 72 | 300 | 0.9 | 7.0 | 0.00 | 0.00 | 0.00 | 62 | 1014.1 |
| 20260505214506 | 73 | 142 | 0.0 | 4.3 | 0.00 | 0.00 | 0.00 | 61 | 1014.1 |
| 20260505213005 | 73 | 162 | 0.9 | 5.2 | 0.00 | 0.00 | 0.00 | 61 | 1014.2 |
| 20260505211505 | 72 | 325 | 0.9 | 3.5 | 0.00 | 0.00 | 0.00 | 62 | 1014.3 |
| 20260505210003 | 72 | 172 | 0.0 | 5.2 | 0.00 | 0.00 | 0.00 | 63 | 1014.4 |
| 20260505204500 | 71 | 105 | 0.0 | 4.3 | 0.00 | 0.00 | 0.00 | 64 | 1014.5 |
| 20260505203059 | 71 | 6 | 0.0 | 5.2 | 0.00 | 0.00 | 0.00 | 65 | 1014.5 |
| 20260505201602 | 70 | 140 | 0.0 | 5.2 | 0.00 | 0.00 | 0.00 | 65 | 1014.6 |
| 20260505200103 | 71 | 30 | 0.0 | 3.5 | 0.00 | 0.00 | 0.00 | 64 | 1014.5 |
| 20260505194556 | 70 | 106 | 0.0 | 6.1 | 0.00 | 0.00 | 0.00 | 66 | 1014.6 |
| 20260505193058 | 69 | 142 | 1.7 | 6.1 | 0.00 | 0.00 | 0.00 | 67 | 1014.5 |
| 20260505191559 | 70 | 107 | 0.0 | 1.7 | 0.00 | 0.00 | 0.00 | 67 | 1014.5 |
| 20260505190052 | 68 | 153 | 1.7 | 6.1 | 0.00 | 0.00 | 0.00 | 66 | 1014.5 |
| 20260505184553 | 68 | 124 | 0.0 | 4.3 | 0.00 | 0.00 | 0.00 | 67 | 1014.5 |
| 20260505183048 | 67 | 339 | 0.0 | 4.3 | 0.00 | 0.00 | 0.00 | 71 | 1014.5 |
| 20260505181545 | 67 | 212 | 1.7 | 6.1 | 0.00 | 0.00 | 0.00 | 71 | 1014.5 |
| 20260505180052 | 66 | 133 | 0.9 | 5.2 | 0.00 | 0.00 | 0.00 | 71 | 1014.5 |
| 20260505174600 | 66 | 155 | 0.0 | 2.6 | 0.00 | 0.00 | 0.00 | 75 | 1014.5 |
| 20260505173039 | 65 | 117 | 1.7 | 5.2 | 0.00 | 0.00 | 0.00 | 75 | 1014.4 |
| 20260505171536 | 64 | 139 | 0.0 | 6.1 | 0.00 | 0.00 | 0.00 | 76 | 1014.5 |
| 20260505170036 | 63 | 147 | 0.0 | 3.5 | 0.00 | 0.00 | 0.00 | 78 | 1014.4 |
| 20260505164530 | 62 | 125 | 0.0 | 4.3 | 0.00 | 0.00 | 0.00 | 79 | 1014.4 |
| 20260505163028 | 62 | 150 | 0.0 | 2.6 | 0.00 | 0.00 | 0.00 | 81 | 1014.3 |
| 20260505161524 | 61 | 151 | 0.9 | 3.5 | 0.00 | 0.00 | 0.00 | 81 | 1014.3 |
| 20260505153017 | 57 | 139 | 0.0 | 4.3 | 0.00 | 0.00 | 0.00 | 87 | 1014.1 |
| 20260505151509 | 55 | 113 | 0.0 | 2.6 | 0.00 | 0.00 | 0.00 | 89 | 1013.9 |
| 20260505124553 | 48 | 165 | 0.0 | 0.0 | 0.00 | 0.00 | 0.00 | 90 | 1012.5 |
| 20260505123108 | 48 | 165 | 0.0 | 0.0 | 0.00 | 0.00 | 0.00 | 90 | 1012.2 |
| 20260505121547 | 48 | 165 | 0.0 | 0.0 | 0.00 | 0.00 | 0.00 | 90 | 1012.1 |
| 20260505120047 | 48 | 165 | 0.0 | 0.0 | 0.00 | 0.00 | 0.00 | 89 | 1011.9 |
| 20260505114604 | 49 | 165 | 0.0 | 0.0 | 0.00 | 0.00 | 0.00 | 89 | 1011.9 |